sensor_id;sensor_type;location;lat;lon;timestamp;P1;durP1;ratioP1;P2;durP2;ratioP2
30133;SDS011;16946;49.984;10.672;2023-07-29T00:00:28;1.92;;;1.70;;
30133;SDS011;16946;49.984;10.672;2023-07-29T00:00:58;1.73;;;1.63;;
30133;SDS011;16946;49.984;10.672;2023-07-29T00:01:30;3.08;;;1.65;;
30133;SDS011;16946;49.984;10.672;2023-07-29T00:02:01;4.72;;;1.92;;
30133;SDS011;16946;49.984;10.672;2023-07-29T00:02:32;2.10;;;1.88;;
30133;SDS011;16946;49.984;10.672;2023-07-29T00:03:03;3.73;;;1.77;;
30133;SDS011;16946;49.984;10.672;2023-07-29T00:03:33;2.10;;;1.77;;
30133;SDS011;16946;49.984;10.672;2023-07-29T00:04:04;2.17;;;1.97;;
30133;SDS011;16946;49.984;10.672;2023-07-29T00:04:34;3.40;;;1.67;;
30133;SDS011;16946;49.984;10.672;2023-07-29T00:05:05;2.20;;;2.00;;
30133;SDS011;16946;49.984;10.672;2023-07-29T00:05:38;1.93;;;1.73;;
30133;SDS011;16946;49.984;10.672;2023-07-29T00:06:11;3.22;;;1.90;;
30133;SDS011;16946;49.984;10.672;2023-07-29T00:06:41;2.40;;;1.70;;
30133;SDS011;16946;49.984;10.672;2023-07-29T00:07:12;3.17;;;1.80;;
30133;SDS011;16946;49.984;10.672;2023-07-29T00:07:42;2.17;;;1.90;;
30133;SDS011;16946;49.984;10.672;2023-07-29T00:08:13;2.30;;;1.90;;
30133;SDS011;16946;49.984;10.672;2023-07-29T00:08:43;4.07;;;1.60;;
30133;SDS011;16946;49.984;10.672;2023-07-29T00:09:14;2.60;;;1.87;;
30133;SDS011;16946;49.984;10.672;2023-07-29T00:09:44;2.93;;;1.80;;
30133;SDS011;16946;49.984;10.672;2023-07-29T00:10:15;1.77;;;1.67;;
30133;SDS011;16946;49.984;10.672;2023-07-29T00:10:46;3.43;;;2.30;;
30133;SDS011;16946;49.984;10.672;2023-07-29T00:11:17;2.10;;;1.80;;
30133;SDS011;16946;49.984;10.672;2023-07-29T00:11:47;2.20;;;1.50;;
30133;SDS011;16946;49.984;10.672;2023-07-29T00:12:18;1.77;;;1.67;;
30133;SDS011;16946;49.984;10.672;2023-07-29T00:12:48;2.50;;;1.60;;
30133;SDS011;16946;49.984;10.672;2023-07-29T00:13:19;2.00;;;1.80;;
30133;SDS011;16946;49.984;10.672;2023-07-29T00:13:49;2.43;;;1.67;;
30133;SDS011;16946;49.984;10.672;2023-07-29T00:14:20;2.10;;;1.87;;
30133;SDS011;16946;49.984;10.672;2023-07-29T00:14:51;1.83;;;1.63;;
30133;SDS011;16946;49.984;10.672;2023-07-29T00:15:22;2.17;;;1.77;;
30133;SDS011;16946;49.984;10.672;2023-07-29T00:15:55;2.03;;;1.67;;
30133;SDS011;16946;49.984;10.672;2023-07-29T00:16:26;1.95;;;1.75;;
30133;SDS011;16946;49.984;10.672;2023-07-29T00:16:56;1.97;;;1.70;;
30133;SDS011;16946;49.984;10.672;2023-07-29T00:17:27;4.13;;;1.90;;
30133;SDS011;16946;49.984;10.672;2023-07-29T00:17:57;2.77;;;1.80;;
30133;SDS011;16946;49.984;10.672;2023-07-29T00:18:28;1.90;;;1.77;;
30133;SDS011;16946;49.984;10.672;2023-07-29T00:18:59;1.80;;;1.70;;
30133;SDS011;16946;49.984;10.672;2023-07-29T00:19:29;3.20;;;1.73;;
30133;SDS011;16946;49.984;10.672;2023-07-29T00:20:00;2.07;;;1.87;;
30133;SDS011;16946;49.984;10.672;2023-07-29T00:20:30;2.90;;;1.80;;
30133;SDS011;16946;49.984;10.672;2023-07-29T00:21:01;4.73;;;2.10;;
30133;SDS011;16946;49.984;10.672;2023-07-29T00:21:31;2.00;;;1.80;;
30133;SDS011;16946;49.984;10.672;2023-07-29T00:22:02;2.20;;;1.83;;
30133;SDS011;16946;49.984;10.672;2023-07-29T00:22:33;3.13;;;2.00;;
30133;SDS011;16946;49.984;10.672;2023-07-29T00:23:03;1.87;;;1.57;;
30133;SDS011;16946;49.984;10.672;2023-07-29T00:23:34;2.23;;;1.80;;
30133;SDS011;16946;49.984;10.672;2023-07-29T00:24:04;2.33;;;1.87;;
30133;SDS011;16946;49.984;10.672;2023-07-29T00:24:35;2.83;;;1.90;;
30133;SDS011;16946;49.984;10.672;2023-07-29T00:25:06;2.30;;;1.60;;
30133;SDS011;16946;49.984;10.672;2023-07-29T00:25:36;2.20;;;1.67;;
30133;SDS011;16946;49.984;10.672;2023-07-29T00:26:07;3.73;;;2.00;;
30133;SDS011;16946;49.984;10.672;2023-07-29T00:26:38;2.10;;;1.90;;
30133;SDS011;16946;49.984;10.672;2023-07-29T00:27:08;2.40;;;2.07;;
30133;SDS011;16946;49.984;10.672;2023-07-29T00:27:39;2.47;;;1.87;;
30133;SDS011;16946;49.984;10.672;2023-07-29T00:28:09;1.70;;;1.60;;
30133;SDS011;16946;49.984;10.672;2023-07-29T00:28:41;2.28;;;1.92;;
30133;SDS011;16946;49.984;10.672;2023-07-29T00:29:12;2.30;;;2.10;;
30133;SDS011;16946;49.984;10.672;2023-07-29T00:29:42;2.27;;;1.80;;
30133;SDS011;16946;49.984;10.672;2023-07-29T00:30:13;3.47;;;2.10;;
30133;SDS011;16946;49.984;10.672;2023-07-29T00:30:43;3.40;;;2.80;;
30133;SDS011;16946;49.984;10.672;2023-07-29T00:31:14;3.60;;;2.20;;
30133;SDS011;16946;49.984;10.672;2023-07-29T00:31:45;2.93;;;2.00;;
30133;SDS011;16946;49.984;10.672;2023-07-29T00:32:15;2.83;;;2.07;;
30133;SDS011;16946;49.984;10.672;2023-07-29T00:32:46;2.63;;;1.90;;
30133;SDS011;16946;49.984;10.672;2023-07-29T00:33:16;2.43;;;1.73;;
30133;SDS011;16946;49.984;10.672;2023-07-29T00:33:47;2.97;;;1.90;;
30133;SDS011;16946;49.984;10.672;2023-07-29T00:34:17;2.90;;;2.40;;
30133;SDS011;16946;49.984;10.672;2023-07-29T00:34:49;4.45;;;1.90;;
30133;SDS011;16946;49.984;10.672;2023-07-29T00:35:20;2.20;;;2.00;;
30133;SDS011;16946;49.984;10.672;2023-07-29T00:35:50;3.00;;;2.10;;
30133;SDS011;16946;49.984;10.672;2023-07-29T00:36:21;2.40;;;2.20;;
30133;SDS011;16946;49.984;10.672;2023-07-29T00:36:51;2.00;;;1.80;;
30133;SDS011;16946;49.984;10.672;2023-07-29T00:37:25;3.58;;;2.28;;
30133;SDS011;16946;49.984;10.672;2023-07-29T00:37:55;3.13;;;2.10;;
30133;SDS011;16946;49.984;10.672;2023-07-29T00:38:26;3.63;;;2.13;;
30133;SDS011;16946;49.984;10.672;2023-07-29T00:38:56;2.10;;;1.90;;
30133;SDS011;16946;49.984;10.672;2023-07-29T00:39:27;2.43;;;1.60;;
30133;SDS011;16946;49.984;10.672;2023-07-29T00:39:57;2.33;;;1.90;;
30133;SDS011;16946;49.984;10.672;2023-07-29T00:40:28;5.50;;;2.30;;
30133;SDS011;16946;49.984;10.672;2023-07-29T00:41:00;2.20;;;2.00;;
30133;SDS011;16946;49.984;10.672;2023-07-29T00:41:33;2.38;;;2.17;;
30133;SDS011;16946;49.984;10.672;2023-07-29T00:42:03;2.60;;;2.13;;
30133;SDS011;16946;49.984;10.672;2023-07-29T00:42:34;2.50;;;1.98;;
30133;SDS011;16946;49.984;10.672;2023-07-29T00:43:05;2.13;;;1.90;;
30133;SDS011;16946;49.984;10.672;2023-07-29T00:43:36;3.00;;;2.10;;
30133;SDS011;16946;49.984;10.672;2023-07-29T00:44:06;2.33;;;2.03;;
30133;SDS011;16946;49.984;10.672;2023-07-29T00:44:37;3.97;;;2.10;;
30133;SDS011;16946;49.984;10.672;2023-07-29T00:45:08;3.97;;;1.83;;
30133;SDS011;16946;49.984;10.672;2023-07-29T00:45:39;2.20;;;2.00;;
30133;SDS011;16946;49.984;10.672;2023-07-29T00:46:13;3.30;;;2.40;;
30133;SDS011;16946;49.984;10.672;2023-07-29T00:46:43;2.63;;;2.43;;
30133;SDS011;16946;49.984;10.672;2023-07-29T00:47:16;3.45;;;2.05;;
30133;SDS011;16946;49.984;10.672;2023-07-29T00:47:48;2.40;;;2.20;;
30133;SDS011;16946;49.984;10.672;2023-07-29T00:48:19;2.67;;;2.30;;
30133;SDS011;16946;49.984;10.672;2023-07-29T00:48:50;5.20;;;2.20;;
30133;SDS011;16946;49.984;10.672;2023-07-29T00:49:21;3.57;;;2.30;;
30133;SDS011;16946;49.984;10.672;2023-07-29T00:49:52;3.03;;;2.30;;
30133;SDS011;16946;49.984;10.672;2023-07-29T00:50:22;5.27;;;2.50;;
30133;SDS011;16946;49.984;10.672;2023-07-29T00:50:54;2.58;;;2.38;;
30133;SDS011;16946;49.984;10.672;2023-07-29T00:51:25;2.67;;;2.42;;
30133;SDS011;16946;49.984;10.672;2023-07-29T00:51:56;3.10;;;2.80;;
30133;SDS011;16946;49.984;10.672;2023-07-29T00:52:26;2.50;;;2.30;;
30133;SDS011;16946;49.984;10.672;2023-07-29T00:52:57;4.77;;;2.63;;
30133;SDS011;16946;49.984;10.672;2023-07-29T00:53:27;2.97;;;2.40;;
30133;SDS011;16946;49.984;10.672;2023-07-29T00:53:58;5.60;;;2.70;;
30133;SDS011;16946;49.984;10.672;2023-07-29T00:54:29;3.80;;;2.87;;
30133;SDS011;16946;49.984;10.672;2023-07-29T00:54:59;3.70;;;2.50;;
30133;SDS011;16946;49.984;10.672;2023-07-29T00:55:30;3.23;;;2.60;;
30133;SDS011;16946;49.984;10.672;2023-07-29T00:56:00;6.67;;;2.33;;
30133;SDS011;16946;49.984;10.672;2023-07-29T00:56:31;2.67;;;2.40;;
30133;SDS011;16946;49.984;10.672;2023-07-29T00:57:02;2.57;;;2.20;;
30133;SDS011;16946;49.984;10.672;2023-07-29T00:57:33;2.92;;;2.40;;
30133;SDS011;16946;49.984;10.672;2023-07-29T00:58:03;2.30;;;2.10;;
30133;SDS011;16946;49.984;10.672;2023-07-29T00:58:34;2.50;;;2.20;;
30133;SDS011;16946;49.984;10.672;2023-07-29T00:59:05;2.77;;;2.10;;
30133;SDS011;16946;49.984;10.672;2023-07-29T00:59:36;2.40;;;2.20;;
30133;SDS011;16946;49.984;10.672;2023-07-29T01:00:06;3.10;;;2.33;;
30133;SDS011;16946;49.984;10.672;2023-07-29T01:00:38;2.47;;;2.28;;
30133;SDS011;16946;49.984;10.672;2023-07-29T01:01:09;2.43;;;2.23;;
30133;SDS011;16946;49.984;10.672;2023-07-29T01:01:39;2.47;;;2.27;;
30133;SDS011;16946;49.984;10.672;2023-07-29T01:02:10;2.83;;;2.53;;
30133;SDS011;16946;49.984;10.672;2023-07-29T01:02:42;4.60;;;2.47;;
30133;SDS011;16946;49.984;10.672;2023-07-29T01:03:13;5.00;;;2.30;;
30133;SDS011;16946;49.984;10.672;2023-07-29T01:03:43;3.07;;;2.47;;
30133;SDS011;16946;49.984;10.672;2023-07-29T01:04:15;2.75;;;2.53;;
30133;SDS011;16946;49.984;10.672;2023-07-29T01:04:45;3.40;;;2.60;;
30133;SDS011;16946;49.984;10.672;2023-07-29T01:05:24;3.13;;;2.22;;
30133;SDS011;16946;49.984;10.672;2023-07-29T01:08:16;2.67;;;2.30;;
30133;SDS011;16946;49.984;10.672;2023-07-29T01:09:04;2.58;;;2.38;;
30133;SDS011;16946;49.984;10.672;2023-07-29T01:09:55;2.90;;;2.70;;
30133;SDS011;16946;49.984;10.672;2023-07-29T01:10:34;2.20;;;2.00;;
30133;SDS011;16946;49.984;10.672;2023-07-29T01:12:07;2.30;;;2.10;;
30133;SDS011;16946;49.984;10.672;2023-07-29T01:12:54;5.60;;;2.50;;
30133;SDS011;16946;49.984;10.672;2023-07-29T01:13:33;2.83;;;2.63;;
30133;SDS011;16946;49.984;10.672;2023-07-29T01:14:39;4.45;;;2.60;;
30133;SDS011;16946;49.984;10.672;2023-07-29T01:17:15;2.97;;;2.42;;
30133;SDS011;16946;49.984;10.672;2023-07-29T01:17:56;2.80;;;2.50;;
30133;SDS011;16946;49.984;10.672;2023-07-29T01:18:33;2.67;;;2.40;;
30133;SDS011;16946;49.984;10.672;2023-07-29T01:19:07;3.05;;;2.65;;
30133;SDS011;16946;49.984;10.672;2023-07-29T01:20:34;3.95;;;2.10;;
30133;SDS011;16946;49.984;10.672;2023-07-29T01:21:08;3.00;;;2.72;;
30133;SDS011;16946;49.984;10.672;2023-07-29T01:21:39;2.88;;;2.67;;
30133;SDS011;16946;49.984;10.672;2023-07-29T01:22:11;2.33;;;2.13;;
30133;SDS011;16946;49.984;10.672;2023-07-29T01:22:43;5.38;;;2.63;;
30133;SDS011;16946;49.984;10.672;2023-07-29T01:23:15;3.35;;;2.75;;
30133;SDS011;16946;49.984;10.672;2023-07-29T01:23:46;3.10;;;2.80;;
30133;SDS011;16946;49.984;10.672;2023-07-29T01:24:16;2.80;;;2.60;;
30133;SDS011;16946;49.984;10.672;2023-07-29T01:24:47;2.97;;;2.50;;
30133;SDS011;16946;49.984;10.672;2023-07-29T01:25:17;3.23;;;2.60;;
30133;SDS011;16946;49.984;10.672;2023-07-29T01:25:48;5.20;;;2.50;;
30133;SDS011;16946;49.984;10.672;2023-07-29T01:26:19;5.33;;;2.67;;
30133;SDS011;16946;49.984;10.672;2023-07-29T01:26:49;3.57;;;2.73;;
30133;SDS011;16946;49.984;10.672;2023-07-29T01:27:20;2.73;;;2.53;;
30133;SDS011;16946;49.984;10.672;2023-07-29T01:27:51;5.03;;;3.00;;
30133;SDS011;16946;49.984;10.672;2023-07-29T01:28:22;4.88;;;2.25;;
30133;SDS011;16946;49.984;10.672;2023-07-29T01:28:53;2.67;;;2.35;;
30133;SDS011;16946;49.984;10.672;2023-07-29T01:29:24;3.05;;;2.38;;
30133;SDS011;16946;49.984;10.672;2023-07-29T01:29:55;4.40;;;2.50;;
30133;SDS011;16946;49.984;10.672;2023-07-29T01:30:30;3.78;;;2.70;;
30133;SDS011;16946;49.984;10.672;2023-07-29T01:31:20;4.03;;;2.10;;
30133;SDS011;16946;49.984;10.672;2023-07-29T01:32:05;4.20;;;2.67;;
30133;SDS011;16946;49.984;10.672;2023-07-29T01:32:43;3.55;;;2.83;;
30133;SDS011;16946;49.984;10.672;2023-07-29T01:33:25;2.70;;;2.50;;
30133;SDS011;16946;49.984;10.672;2023-07-29T01:34:02;3.47;;;2.60;;
30133;SDS011;16946;49.984;10.672;2023-07-29T01:36:07;4.53;;;2.70;;
30133;SDS011;16946;49.984;10.672;2023-07-29T01:36:42;3.30;;;2.70;;
30133;SDS011;16946;49.984;10.672;2023-07-29T01:37:21;2.97;;;2.53;;
30133;SDS011;16946;49.984;10.672;2023-07-29T01:37:56;2.88;;;2.60;;
30133;SDS011;16946;49.984;10.672;2023-07-29T01:38:33;3.45;;;2.72;;
30133;SDS011;16946;49.984;10.672;2023-07-29T01:39:06;4.05;;;2.65;;
30133;SDS011;16946;49.984;10.672;2023-07-29T01:39:38;4.47;;;2.55;;
30133;SDS011;16946;49.984;10.672;2023-07-29T01:40:10;5.40;;;2.90;;
30133;SDS011;16946;49.984;10.672;2023-07-29T01:40:40;3.83;;;2.80;;
30133;SDS011;16946;49.984;10.672;2023-07-29T01:41:13;3.90;;;3.45;;
30133;SDS011;16946;49.984;10.672;2023-07-29T01:41:46;4.03;;;2.92;;
30133;SDS011;16946;49.984;10.672;2023-07-29T01:42:17;5.03;;;2.97;;
30133;SDS011;16946;49.984;10.672;2023-07-29T01:42:48;2.97;;;2.70;;
30133;SDS011;16946;49.984;10.672;2023-07-29T01:43:19;3.25;;;2.63;;
30133;SDS011;16946;49.984;10.672;2023-07-29T01:43:53;5.13;;;3.30;;
30133;SDS011;16946;49.984;10.672;2023-07-29T01:44:25;5.13;;;3.33;;
30133;SDS011;16946;49.984;10.672;2023-07-29T01:44:57;3.13;;;2.92;;
30133;SDS011;16946;49.984;10.672;2023-07-29T01:45:27;3.10;;;2.73;;
30133;SDS011;16946;49.984;10.672;2023-07-29T01:46:01;5.22;;;3.55;;
30133;SDS011;16946;49.984;10.672;2023-07-29T01:46:33;3.00;;;2.70;;
30133;SDS011;16946;49.984;10.672;2023-07-29T01:47:04;3.53;;;2.97;;
30133;SDS011;16946;49.984;10.672;2023-07-29T01:47:34;3.83;;;3.53;;
30133;SDS011;16946;49.984;10.672;2023-07-29T01:48:08;6.75;;;2.95;;
30133;SDS011;16946;49.984;10.672;2023-07-29T01:48:39;3.57;;;3.13;;
30133;SDS011;16946;49.984;10.672;2023-07-29T01:49:10;5.35;;;3.70;;
30133;SDS011;16946;49.984;10.672;2023-07-29T01:49:40;4.17;;;3.00;;
30133;SDS011;16946;49.984;10.672;2023-07-29T01:50:11;3.80;;;3.20;;
30133;SDS011;16946;49.984;10.672;2023-07-29T01:50:42;4.33;;;3.60;;
30133;SDS011;16946;49.984;10.672;2023-07-29T01:51:12;3.97;;;3.10;;
30133;SDS011;16946;49.984;10.672;2023-07-29T01:51:44;3.97;;;3.15;;
30133;SDS011;16946;49.984;10.672;2023-07-29T01:52:14;3.70;;;3.40;;
30133;SDS011;16946;49.984;10.672;2023-07-29T01:52:45;4.40;;;3.57;;
30133;SDS011;16946;49.984;10.672;2023-07-29T01:53:15;6.33;;;3.20;;
30133;SDS011;16946;49.984;10.672;2023-07-29T01:53:46;3.47;;;3.03;;
30133;SDS011;16946;49.984;10.672;2023-07-29T01:54:17;3.93;;;3.17;;
30133;SDS011;16946;49.984;10.672;2023-07-29T01:54:47;4.73;;;3.50;;
30133;SDS011;16946;49.984;10.672;2023-07-29T01:55:18;5.70;;;3.47;;
30133;SDS011;16946;49.984;10.672;2023-07-29T01:55:48;3.77;;;3.43;;
30133;SDS011;16946;49.984;10.672;2023-07-29T01:56:19;5.23;;;3.87;;
30133;SDS011;16946;49.984;10.672;2023-07-29T01:56:49;4.13;;;3.17;;
30133;SDS011;16946;49.984;10.672;2023-07-29T01:57:21;3.80;;;3.38;;
30133;SDS011;16946;49.984;10.672;2023-07-29T01:57:51;3.87;;;3.43;;
30133;SDS011;16946;49.984;10.672;2023-07-29T01:58:22;3.53;;;3.00;;
30133;SDS011;16946;49.984;10.672;2023-07-29T01:58:52;3.37;;;3.07;;
30133;SDS011;16946;49.984;10.672;2023-07-29T01:59:23;6.63;;;3.43;;
30133;SDS011;16946;49.984;10.672;2023-07-29T01:59:54;3.07;;;2.77;;
30133;SDS011;16946;49.984;10.672;2023-07-29T02:00:24;4.47;;;3.43;;
30133;SDS011;16946;49.984;10.672;2023-07-29T02:00:55;3.57;;;3.10;;
30133;SDS011;16946;49.984;10.672;2023-07-29T02:01:25;5.30;;;3.83;;
30133;SDS011;16946;49.984;10.672;2023-07-29T02:01:56;4.00;;;3.60;;
30133;SDS011;16946;49.984;10.672;2023-07-29T02:02:26;4.27;;;3.13;;
30133;SDS011;16946;49.984;10.672;2023-07-29T02:02:57;3.37;;;2.97;;
30133;SDS011;16946;49.984;10.672;2023-07-29T02:03:27;3.60;;;3.27;;
30133;SDS011;16946;49.984;10.672;2023-07-29T02:03:58;3.43;;;3.23;;
30133;SDS011;16946;49.984;10.672;2023-07-29T02:04:28;3.77;;;3.20;;
30133;SDS011;16946;49.984;10.672;2023-07-29T02:04:59;3.50;;;3.20;;
30133;SDS011;16946;49.984;10.672;2023-07-29T02:05:29;4.60;;;3.47;;
30133;SDS011;16946;49.984;10.672;2023-07-29T02:06:00;4.43;;;3.40;;
30133;SDS011;16946;49.984;10.672;2023-07-29T02:06:30;3.73;;;3.40;;
30133;SDS011;16946;49.984;10.672;2023-07-29T02:07:01;3.97;;;3.27;;
30133;SDS011;16946;49.984;10.672;2023-07-29T02:07:31;4.80;;;3.83;;
30133;SDS011;16946;49.984;10.672;2023-07-29T02:08:02;5.77;;;3.77;;
30133;SDS011;16946;49.984;10.672;2023-07-29T02:08:33;6.23;;;4.17;;
30133;SDS011;16946;49.984;10.672;2023-07-29T02:09:03;4.27;;;3.70;;
30133;SDS011;16946;49.984;10.672;2023-07-29T02:09:34;3.90;;;3.27;;
30133;SDS011;16946;49.984;10.672;2023-07-29T02:10:05;4.87;;;3.60;;
30133;SDS011;16946;49.984;10.672;2023-07-29T02:10:36;4.05;;;3.65;;
30133;SDS011;16946;49.984;10.672;2023-07-29T02:11:07;3.10;;;2.90;;
30133;SDS011;16946;49.984;10.672;2023-07-29T02:11:38;3.70;;;3.30;;
30133;SDS011;16946;49.984;10.672;2023-07-29T02:12:08;3.60;;;3.30;;
30133;SDS011;16946;49.984;10.672;2023-07-29T02:12:39;4.17;;;3.37;;
30133;SDS011;16946;49.984;10.672;2023-07-29T02:13:10;4.53;;;3.43;;
30133;SDS011;16946;49.984;10.672;2023-07-29T02:13:40;3.43;;;3.10;;
30133;SDS011;16946;49.984;10.672;2023-07-29T02:14:11;5.90;;;4.00;;
30133;SDS011;16946;49.984;10.672;2023-07-29T02:14:41;3.70;;;3.40;;
30133;SDS011;16946;49.984;10.672;2023-07-29T02:15:12;4.73;;;3.43;;
30133;SDS011;16946;49.984;10.672;2023-07-29T02:15:42;5.03;;;3.73;;
30133;SDS011;16946;49.984;10.672;2023-07-29T02:16:14;4.72;;;4.00;;
30133;SDS011;16946;49.984;10.672;2023-07-29T02:16:44;6.10;;;3.57;;
30133;SDS011;16946;49.984;10.672;2023-07-29T02:17:15;3.50;;;3.20;;
30133;SDS011;16946;49.984;10.672;2023-07-29T02:17:45;3.23;;;2.93;;
30133;SDS011;16946;49.984;10.672;2023-07-29T02:18:16;3.60;;;3.30;;
30133;SDS011;16946;49.984;10.672;2023-07-29T02:18:46;5.13;;;3.40;;
30133;SDS011;16946;49.984;10.672;2023-07-29T02:19:17;4.00;;;3.70;;
30133;SDS011;16946;49.984;10.672;2023-07-29T02:19:47;4.30;;;3.10;;
30133;SDS011;16946;49.984;10.672;2023-07-29T02:20:18;3.37;;;3.07;;
30133;SDS011;16946;49.984;10.672;2023-07-29T02:20:48;4.37;;;3.67;;
30133;SDS011;16946;49.984;10.672;2023-07-29T02:21:19;4.33;;;3.37;;
30133;SDS011;16946;49.984;10.672;2023-07-29T02:21:50;3.63;;;3.33;;
30133;SDS011;16946;49.984;10.672;2023-07-29T02:22:20;3.83;;;3.50;;
30133;SDS011;16946;49.984;10.672;2023-07-29T02:22:51;5.67;;;3.33;;
30133;SDS011;16946;49.984;10.672;2023-07-29T02:23:21;5.20;;;3.57;;
30133;SDS011;16946;49.984;10.672;2023-07-29T02:23:52;4.00;;;3.60;;
30133;SDS011;16946;49.984;10.672;2023-07-29T02:24:23;4.03;;;3.63;;
30133;SDS011;16946;49.984;10.672;2023-07-29T02:24:53;4.13;;;3.83;;
30133;SDS011;16946;49.984;10.672;2023-07-29T02:25:24;4.67;;;4.17;;
30133;SDS011;16946;49.984;10.672;2023-07-29T02:25:54;5.30;;;3.63;;
30133;SDS011;16946;49.984;10.672;2023-07-29T02:26:25;4.90;;;3.70;;
30133;SDS011;16946;49.984;10.672;2023-07-29T02:26:56;4.30;;;3.90;;
30133;SDS011;16946;49.984;10.672;2023-07-29T02:27:26;4.43;;;3.50;;
30133;SDS011;16946;49.984;10.672;2023-07-29T02:27:58;4.97;;;3.50;;
30133;SDS011;16946;49.984;10.672;2023-07-29T02:28:28;3.70;;;3.40;;
30133;SDS011;16946;49.984;10.672;2023-07-29T02:28:59;4.17;;;3.77;;
30133;SDS011;16946;49.984;10.672;2023-07-29T02:29:29;4.30;;;3.90;;
30133;SDS011;16946;49.984;10.672;2023-07-29T02:30:00;4.53;;;4.22;;
30133;SDS011;16946;49.984;10.672;2023-07-29T02:30:31;3.93;;;3.63;;
30133;SDS011;16946;49.984;10.672;2023-07-29T02:31:19;8.53;;;4.10;;
30133;SDS011;16946;49.984;10.672;2023-07-29T02:31:52;5.78;;;4.20;;
30133;SDS011;16946;49.984;10.672;2023-07-29T02:32:23;4.20;;;3.80;;
30133;SDS011;16946;49.984;10.672;2023-07-29T02:32:54;4.27;;;3.87;;
30133;SDS011;16946;49.984;10.672;2023-07-29T02:33:24;4.00;;;3.70;;
30133;SDS011;16946;49.984;10.672;2023-07-29T02:33:55;6.00;;;3.67;;
30133;SDS011;16946;49.984;10.672;2023-07-29T02:34:26;4.07;;;3.67;;
30133;SDS011;16946;49.984;10.672;2023-07-29T02:34:56;6.00;;;3.90;;
30133;SDS011;16946;49.984;10.672;2023-07-29T02:35:27;3.87;;;3.57;;
30133;SDS011;16946;49.984;10.672;2023-07-29T02:35:58;4.80;;;4.30;;
30133;SDS011;16946;49.984;10.672;2023-07-29T02:36:29;4.23;;;3.93;;
30133;SDS011;16946;49.984;10.672;2023-07-29T02:36:59;6.57;;;3.87;;
30133;SDS011;16946;49.984;10.672;2023-07-29T02:37:30;3.73;;;3.43;;
30133;SDS011;16946;49.984;10.672;2023-07-29T02:38:00;4.07;;;3.77;;
30133;SDS011;16946;49.984;10.672;2023-07-29T02:38:31;4.27;;;3.83;;
30133;SDS011;16946;49.984;10.672;2023-07-29T02:39:02;6.23;;;3.43;;
30133;SDS011;16946;49.984;10.672;2023-07-29T02:39:32;4.50;;;4.10;;
30133;SDS011;16946;49.984;10.672;2023-07-29T02:40:03;5.63;;;4.23;;
30133;SDS011;16946;49.984;10.672;2023-07-29T02:40:34;6.80;;;4.20;;
30133;SDS011;16946;49.984;10.672;2023-07-29T02:41:05;4.07;;;3.77;;
30133;SDS011;16946;49.984;10.672;2023-07-29T02:41:36;4.68;;;4.28;;
30133;SDS011;16946;49.984;10.672;2023-07-29T02:42:06;4.20;;;3.80;;
30133;SDS011;16946;49.984;10.672;2023-07-29T02:42:37;4.57;;;4.17;;
30133;SDS011;16946;49.984;10.672;2023-07-29T02:43:08;3.92;;;3.60;;
30133;SDS011;16946;49.984;10.672;2023-07-29T02:43:39;4.23;;;3.80;;
30133;SDS011;16946;49.984;10.672;2023-07-29T02:44:11;6.47;;;4.18;;
30133;SDS011;16946;49.984;10.672;2023-07-29T02:44:41;3.70;;;3.40;;
30133;SDS011;16946;49.984;10.672;2023-07-29T02:45:12;4.50;;;3.50;;
30133;SDS011;16946;49.984;10.672;2023-07-29T02:45:42;3.90;;;3.60;;
30133;SDS011;16946;49.984;10.672;2023-07-29T02:46:13;4.53;;;4.00;;
30133;SDS011;16946;49.984;10.672;2023-07-29T02:46:43;4.27;;;3.87;;
30133;SDS011;16946;49.984;10.672;2023-07-29T02:47:14;4.37;;;3.97;;
30133;SDS011;16946;49.984;10.672;2023-07-29T02:47:44;4.87;;;3.97;;
30133;SDS011;16946;49.984;10.672;2023-07-29T02:48:15;4.10;;;3.80;;
30133;SDS011;16946;49.984;10.672;2023-07-29T02:48:46;3.87;;;3.57;;
30133;SDS011;16946;49.984;10.672;2023-07-29T02:49:16;5.63;;;4.17;;
30133;SDS011;16946;49.984;10.672;2023-07-29T02:49:47;4.83;;;4.23;;
30133;SDS011;16946;49.984;10.672;2023-07-29T02:50:17;5.00;;;4.60;;
30133;SDS011;16946;49.984;10.672;2023-07-29T02:50:48;5.10;;;4.63;;
30133;SDS011;16946;49.984;10.672;2023-07-29T02:51:18;5.57;;;4.23;;
30133;SDS011;16946;49.984;10.672;2023-07-29T02:51:49;6.20;;;5.00;;
30133;SDS011;16946;49.984;10.672;2023-07-29T02:52:20;5.70;;;5.20;;
30133;SDS011;16946;49.984;10.672;2023-07-29T02:52:50;7.40;;;4.80;;
30133;SDS011;16946;49.984;10.672;2023-07-29T02:53:22;5.97;;;5.07;;
30133;SDS011;16946;49.984;10.672;2023-07-29T02:53:53;4.97;;;4.57;;
30133;SDS011;16946;49.984;10.672;2023-07-29T02:54:23;5.53;;;5.03;;
30133;SDS011;16946;49.984;10.672;2023-07-29T02:54:54;5.17;;;4.70;;
30133;SDS011;16946;49.984;10.672;2023-07-29T02:55:24;5.90;;;5.30;;
30133;SDS011;16946;49.984;10.672;2023-07-29T02:55:55;5.47;;;4.90;;
30133;SDS011;16946;49.984;10.672;2023-07-29T02:56:25;5.53;;;5.03;;
30133;SDS011;16946;49.984;10.672;2023-07-29T02:56:56;6.20;;;5.40;;
30133;SDS011;16946;49.984;10.672;2023-07-29T02:57:26;6.30;;;5.67;;
30133;SDS011;16946;49.984;10.672;2023-07-29T02:57:57;6.80;;;6.10;;
30133;SDS011;16946;49.984;10.672;2023-07-29T02:58:27;7.00;;;6.30;;
30133;SDS011;16946;49.984;10.672;2023-07-29T02:58:58;7.20;;;6.50;;
30133;SDS011;16946;49.984;10.672;2023-07-29T02:59:30;7.28;;;6.60;;
30133;SDS011;16946;49.984;10.672;2023-07-29T03:00:00;6.97;;;6.37;;
30133;SDS011;16946;49.984;10.672;2023-07-29T03:00:31;7.97;;;5.97;;
30133;SDS011;16946;49.984;10.672;2023-07-29T03:01:03;6.70;;;5.85;;
30133;SDS011;16946;49.984;10.672;2023-07-29T03:01:35;7.10;;;6.25;;
30133;SDS011;16946;49.984;10.672;2023-07-29T03:02:05;6.40;;;5.47;;
30133;SDS011;16946;49.984;10.672;2023-07-29T03:02:36;6.83;;;6.00;;
30133;SDS011;16946;49.984;10.672;2023-07-29T03:03:07;8.00;;;7.20;;
30133;SDS011;16946;49.984;10.672;2023-07-29T03:03:38;12.20;;;6.53;;
30133;SDS011;16946;49.984;10.672;2023-07-29T03:04:09;7.03;;;6.15;;
30133;SDS011;16946;49.984;10.672;2023-07-29T03:04:43;7.95;;;6.20;;
30133;SDS011;16946;49.984;10.672;2023-07-29T03:05:13;7.10;;;6.40;;
30133;SDS011;16946;49.984;10.672;2023-07-29T03:05:43;6.83;;;5.80;;
30133;SDS011;16946;49.984;10.672;2023-07-29T03:06:14;6.60;;;5.83;;
30133;SDS011;16946;49.984;10.672;2023-07-29T03:06:45;9.45;;;5.32;;
30133;SDS011;16946;49.984;10.672;2023-07-29T03:07:18;7.22;;;6.57;;
30133;SDS011;16946;49.984;10.672;2023-07-29T03:07:49;6.43;;;5.88;;
30133;SDS011;16946;49.984;10.672;2023-07-29T03:08:19;5.73;;;5.23;;
30133;SDS011;16946;49.984;10.672;2023-07-29T03:08:50;7.57;;;6.30;;
30133;SDS011;16946;49.984;10.672;2023-07-29T03:09:20;6.57;;;6.00;;
30133;SDS011;16946;49.984;10.672;2023-07-29T03:09:51;5.40;;;4.90;;
30133;SDS011;16946;49.984;10.672;2023-07-29T03:10:21;6.60;;;5.83;;
30133;SDS011;16946;49.984;10.672;2023-07-29T03:10:52;6.33;;;5.73;;
30133;SDS011;16946;49.984;10.672;2023-07-29T03:11:23;6.50;;;5.87;;
30133;SDS011;16946;49.984;10.672;2023-07-29T03:11:53;7.43;;;5.40;;
30133;SDS011;16946;49.984;10.672;2023-07-29T03:12:24;7.93;;;5.97;;
30133;SDS011;16946;49.984;10.672;2023-07-29T03:12:55;6.07;;;5.47;;
30133;SDS011;16946;49.984;10.672;2023-07-29T03:13:26;8.43;;;6.30;;
30133;SDS011;16946;49.984;10.672;2023-07-29T03:13:56;6.80;;;6.20;;
30133;SDS011;16946;49.984;10.672;2023-07-29T03:14:27;6.80;;;6.20;;
30133;SDS011;16946;49.984;10.672;2023-07-29T03:14:58;6.17;;;5.67;;